createdAt,value
2019-04-28T00:01:01.960Z,2.93
2019-04-28T00:03:33.245Z,6.83
2019-04-28T00:06:04.587Z,2.77
2019-04-28T00:08:35.901Z,3.07
2019-04-28T00:11:07.227Z,3.20
2019-04-28T00:13:38.500Z,3.40
2019-04-28T00:16:11.452Z,3.10
2019-04-28T00:18:42.911Z,3.57
2019-04-28T00:21:20.984Z,3.07
2019-04-28T00:24:21.122Z,3.43
2019-04-28T00:27:04.252Z,3.33
2019-04-28T00:29:40.851Z,3.10
2019-04-28T00:32:08.532Z,2.70
2019-04-28T00:34:41.200Z,2.77
2019-04-28T00:37:31.918Z,3.00
2019-04-28T00:40:03.625Z,3.07
2019-04-28T00:42:34.904Z,3.00
2019-04-28T00:45:08.378Z,3.13
2019-04-28T00:47:41.273Z,3.07
2019-04-28T00:50:12.851Z,2.43
2019-04-28T00:52:44.158Z,2.83
2019-04-28T00:55:15.491Z,3.07
2019-04-28T00:57:46.806Z,2.80
2019-04-28T01:00:21.513Z,2.77
2019-04-28T01:02:53.309Z,2.60
2019-04-28T01:05:24.793Z,2.70
2019-04-28T01:07:56.047Z,3.33
2019-04-28T01:10:28.020Z,2.97
2019-04-28T01:12:59.344Z,2.83
2019-04-28T01:16:04.426Z,3.03
2019-04-28T01:18:41.750Z,2.70
2019-04-28T01:21:13.004Z,2.60
2019-04-28T01:23:44.223Z,2.77
2019-04-28T01:26:15.485Z,2.63
2019-04-28T01:28:46.741Z,2.97
2019-04-28T01:31:43.767Z,2.97
2019-04-28T01:34:20.634Z,2.90
2019-04-28T01:36:52.163Z,2.73
2019-04-28T01:39:23.474Z,2.93
2019-04-28T01:41:54.766Z,2.67
2019-04-28T01:44:26.072Z,3.30
2019-04-28T01:46:59.485Z,3.23
2019-04-28T01:49:30.373Z,3.50
2019-04-28T01:52:02.457Z,3.40
2019-04-28T01:54:33.730Z,3.00
2019-04-28T01:57:05.086Z,2.83
2019-04-28T01:59:36.423Z,2.97
2019-04-28T02:02:07.708Z,3.70
2019-04-28T02:04:40.184Z,3.20
2019-04-28T02:07:11.722Z,2.80
2019-04-28T02:09:43.051Z,2.60
2019-04-28T02:12:14.354Z,2.87
2019-04-28T02:14:45.631Z,2.97
2019-04-28T02:17:16.934Z,3.20
2019-04-28T02:19:48.299Z,2.90
2019-04-28T02:22:43.050Z,3.37
2019-04-28T02:25:14.373Z,3.30
2019-04-28T02:27:45.710Z,3.10
2019-04-28T02:30:17.015Z,2.93
2019-04-28T02:32:48.299Z,2.80
2019-04-28T02:35:21.345Z,2.87
2019-04-28T02:37:52.595Z,3.03
2019-04-28T02:40:23.864Z,3.67
2019-04-28T02:42:55.189Z,3.40
2019-04-28T02:45:26.481Z,3.27
2019-04-28T02:48:01.242Z,2.87
2019-04-28T02:50:52.542Z,2.93
2019-04-28T02:53:33.227Z,2.87
2019-04-28T02:56:01.950Z,2.90
2019-04-28T02:58:33.260Z,2.73
2019-04-28T03:01:15.259Z,3.43
2019-04-28T03:03:37.577Z,3.00
2019-04-28T03:06:10.798Z,2.63
2019-04-28T03:08:41.873Z,3.20
2019-04-28T03:11:13.146Z,2.93
2019-04-28T03:13:44.445Z,2.83
2019-04-28T03:16:15.766Z,3.20
2019-04-28T03:18:47.085Z,2.87
2019-04-28T03:21:21.177Z,2.67
2019-04-28T03:23:51.915Z,2.83
2019-04-28T03:26:41.377Z,3.20
2019-04-28T03:29:20.522Z,2.73
2019-04-28T03:32:28.638Z,3.30
2019-04-28T03:34:47.497Z,2.73
2019-04-28T03:37:23.620Z,3.33
2019-04-28T03:39:51.886Z,2.70
2019-04-28T03:42:23.292Z,2.43
2019-04-28T03:44:55.935Z,2.73
2019-04-28T03:47:27.235Z,3.13
2019-04-28T03:50:00.076Z,2.57
2019-04-28T03:52:31.952Z,2.30
2019-04-28T03:55:03.249Z,2.57
2019-04-28T03:57:34.550Z,2.47
2019-04-28T04:00:07.391Z,3.23
2019-04-28T04:02:41.221Z,2.67
2019-04-28T04:05:11.801Z,2.83
2019-04-28T04:07:43.386Z,2.73
2019-04-28T04:10:53.977Z,2.70
2019-04-28T04:13:33.031Z,3.70
2019-04-28T04:16:35.077Z,3.10
2019-04-28T04:19:10.435Z,2.97
2019-04-28T04:21:40.964Z,3.63
2019-04-28T04:24:12.227Z,2.77
2019-04-28T04:26:43.515Z,2.43
2019-04-28T04:29:14.858Z,2.83
2019-04-28T04:31:46.152Z,3.00
2019-04-28T04:34:17.458Z,2.33
2019-04-28T04:36:50.880Z,3.07
2019-04-28T04:39:21.811Z,3.30
2019-04-28T04:41:53.121Z,2.67
2019-04-28T04:44:24.406Z,2.97
2019-04-28T04:46:55.711Z,2.73
2019-04-28T04:49:27.002Z,2.70
2019-04-28T04:52:00.412Z,2.87
2019-04-28T04:54:32.747Z,3.13
2019-04-28T04:57:04.305Z,2.90
2019-04-28T04:59:36.981Z,2.90
2019-04-28T05:02:29.310Z,2.70
2019-04-28T05:05:08.154Z,2.83
2019-04-28T05:07:39.667Z,3.13
2019-04-28T05:10:11.008Z,3.13
2019-04-28T05:12:42.287Z,2.90
2019-04-28T05:15:13.656Z,2.97
2019-04-28T05:17:44.952Z,2.77
2019-04-28T05:20:16.253Z,2.53
2019-04-28T05:22:53.622Z,2.87
2019-04-28T05:25:32.547Z,2.73
2019-04-28T05:28:03.595Z,2.90
2019-04-28T05:30:38.891Z,2.67
2019-04-28T05:33:07.829Z,3.37
2019-04-28T05:35:39.732Z,2.93
2019-04-28T05:38:11.089Z,2.67
2019-04-28T05:40:42.373Z,3.23
2019-04-28T05:43:13.648Z,2.90
2019-04-28T05:45:44.958Z,3.10
2019-04-28T05:48:19.997Z,3.27
2019-04-28T05:51:01.823Z,2.83
2019-04-28T05:53:47.350Z,2.87
2019-04-28T05:56:27.485Z,3.20
2019-04-28T05:59:15.478Z,3.13
2019-04-28T06:02:10.328Z,2.47
2019-04-28T06:04:42.529Z,3.00
2019-04-28T06:07:37.402Z,2.97
2019-04-28T06:10:10.155Z,3.13
2019-04-28T06:12:41.960Z,2.57
2019-04-28T06:15:13.344Z,3.00
2019-04-28T06:17:44.622Z,3.20
2019-04-28T06:20:17.224Z,2.50
2019-04-28T06:22:48.518Z,2.77
2019-04-28T06:25:19.846Z,3.10
2019-04-28T06:27:51.116Z,2.87
2019-04-28T06:30:22.588Z,2.77
2019-04-28T06:33:06.786Z,4.07
2019-04-28T06:35:26.907Z,3.03
2019-04-28T06:37:58.209Z,2.57
2019-04-28T06:40:29.520Z,2.60
2019-04-28T06:43:00.827Z,2.83
2019-04-28T06:45:32.133Z,2.70
2019-04-28T06:48:03.406Z,2.43
2019-04-28T06:50:34.705Z,2.90
2019-04-28T06:53:05.975Z,2.30
2019-04-28T06:55:37.244Z,2.30
2019-04-28T06:58:08.554Z,2.53
2019-04-28T07:00:39.858Z,3.00
2019-04-28T07:03:22.646Z,2.40
2019-04-28T07:05:44.147Z,2.60
2019-04-28T07:08:15.465Z,2.60
2019-04-28T07:10:46.781Z,2.37
2019-04-28T07:13:20.587Z,2.80
2019-04-28T07:15:51.039Z,2.57
2019-04-28T07:18:22.338Z,2.50
2019-04-28T07:21:15.188Z,2.60
2019-04-28T07:23:46.484Z,2.50
2019-04-28T07:26:17.797Z,2.40
2019-04-28T07:28:49.103Z,2.40
2019-04-28T07:31:22.046Z,2.63
2019-04-28T07:33:53.383Z,2.80
2019-04-28T07:36:24.642Z,2.60
2019-04-28T07:38:55.979Z,2.53
2019-04-28T07:41:27.260Z,2.60
2019-04-28T07:43:58.569Z,2.50
2019-04-28T07:46:29.936Z,2.20
2019-04-28T07:49:01.179Z,2.40
2019-04-28T07:51:51.365Z,2.80
2019-04-28T07:54:22.876Z,2.30
2019-04-28T07:56:54.150Z,2.20
2019-04-28T07:59:25.429Z,2.87
2019-04-28T08:01:56.709Z,2.90
2019-04-28T08:04:28.007Z,2.80
2019-04-28T08:06:59.284Z,3.67
2019-04-28T08:09:30.595Z,3.80
2019-04-28T08:12:01.923Z,3.93
2019-04-28T08:14:33.284Z,3.80
2019-04-28T08:17:04.683Z,3.93
2019-04-28T08:19:35.965Z,3.73
2019-04-28T08:22:07.299Z,4.07
2019-04-28T08:24:38.614Z,3.60
2019-04-28T08:27:09.872Z,3.97
2019-04-28T08:29:41.177Z,3.73
2019-04-28T08:32:27.653Z,4.47
2019-04-28T08:34:58.982Z,4.30
2019-04-28T08:37:30.303Z,4.53
2019-04-28T08:40:01.593Z,4.50
2019-04-28T08:42:32.877Z,4.33
2019-04-28T08:45:04.341Z,5.10
2019-04-28T08:47:35.659Z,5.20
2019-04-28T08:50:07.188Z,5.07
2019-04-28T08:52:38.518Z,4.90
2019-04-28T08:55:10.028Z,5.20
2019-04-28T08:57:41.360Z,5.10
2019-04-28T09:00:13.518Z,5.40
2019-04-28T09:02:44.839Z,5.30
2019-04-28T09:05:16.358Z,5.53
2019-04-28T09:07:47.684Z,4.87
2019-04-28T09:10:18.990Z,4.73
2019-04-28T09:12:50.289Z,4.90
2019-04-28T09:15:21.571Z,4.37
2019-04-28T09:17:52.886Z,4.00
2019-04-28T09:20:24.229Z,3.80
2019-04-28T09:22:55.587Z,3.93
2019-04-28T09:25:26.897Z,4.10
2019-04-28T09:27:58.198Z,4.40
2019-04-28T09:30:29.725Z,4.20
2019-04-28T09:33:00.998Z,4.67
2019-04-28T09:35:32.329Z,4.63
2019-04-28T09:38:03.642Z,4.40
2019-04-28T09:40:34.981Z,4.93
2019-04-28T09:43:37.428Z,4.80
2019-04-28T09:46:21.607Z,4.70
2019-04-28T09:48:52.926Z,5.07
2019-04-28T09:51:24.230Z,4.40
2019-04-28T09:53:55.538Z,5.03
2019-04-28T09:56:26.972Z,4.90
2019-04-28T09:58:58.331Z,4.70
2019-04-28T10:01:29.595Z,4.73
2019-04-28T10:04:00.903Z,4.77
2019-04-28T10:06:32.195Z,4.67
2019-04-28T10:09:03.971Z,4.97
2019-04-28T10:11:35.310Z,4.73
2019-04-28T10:14:06.597Z,4.63
2019-04-28T10:16:37.900Z,4.70
2019-04-28T10:19:09.221Z,4.10
2019-04-28T10:21:40.480Z,3.93
2019-04-28T10:24:11.813Z,3.90
2019-04-28T10:26:43.136Z,3.43
2019-04-28T10:29:14.444Z,3.60
2019-04-28T10:31:45.750Z,3.43
2019-04-28T10:34:17.035Z,3.87
2019-04-28T10:36:48.356Z,4.17
2019-04-28T10:39:50.406Z,3.90
2019-04-28T10:42:21.717Z,3.70
2019-04-28T10:44:53.258Z,3.17
2019-04-28T10:47:24.636Z,3.10
2019-04-28T10:49:56.635Z,3.10
2019-04-28T10:52:27.933Z,3.30
2019-04-28T10:54:59.230Z,3.20
2019-04-28T10:57:30.451Z,3.40
2019-04-28T11:00:01.876Z,3.23
2019-04-28T11:02:33.116Z,3.53
2019-04-28T11:05:12.545Z,3.40
2019-04-28T11:07:43.814Z,3.03
2019-04-28T11:10:17.390Z,2.77
2019-04-28T11:12:48.900Z,2.50
2019-04-28T11:15:28.640Z,1.80
2019-04-28T11:18:00.556Z,2.07
2019-04-28T11:20:32.412Z,2.50
2019-04-28T11:23:03.874Z,2.30
2019-04-28T11:25:35.161Z,2.33
2019-04-28T11:28:06.601Z,2.73
2019-04-28T11:30:37.913Z,2.40
2019-04-28T11:33:26.833Z,2.20
2019-04-28T11:35:58.219Z,2.50
2019-04-28T11:38:29.572Z,2.40
2019-04-28T11:41:00.923Z,2.13
2019-04-28T11:43:32.223Z,2.20
2019-04-28T11:46:05.032Z,1.60
2019-04-28T11:48:36.323Z,1.30
2019-04-28T11:51:07.630Z,1.50
2019-04-28T11:53:42.506Z,1.53
2019-04-28T11:56:13.902Z,1.43
2019-04-28T11:58:45.282Z,1.40
2019-04-28T12:01:17.747Z,1.70
2019-04-28T12:03:52.265Z,1.30
2019-04-28T12:06:23.603Z,1.50
2019-04-28T12:08:57.722Z,1.37
2019-04-28T12:11:35.023Z,1.40
2019-04-28T12:14:25.405Z,1.27
2019-04-28T12:17:14.344Z,1.63
2019-04-28T12:19:48.270Z,1.10
2019-04-28T12:22:19.765Z,1.10
2019-04-28T12:24:51.136Z,1.50
2019-04-28T12:27:22.507Z,1.20
2019-04-28T12:29:53.857Z,1.10
2019-04-28T12:32:25.225Z,1.20
2019-04-28T12:34:56.642Z,0.97
2019-04-28T12:37:28.034Z,1.10
2019-04-28T12:39:59.451Z,1.10
2019-04-28T12:42:30.786Z,1.17
2019-04-28T12:45:02.065Z,1.20
2019-04-28T12:47:33.425Z,1.37
2019-04-28T12:50:25.850Z,1.30
2019-04-28T12:52:57.142Z,1.23
2019-04-28T12:55:28.419Z,1.13
2019-04-28T12:57:59.762Z,1.00
2019-04-28T13:00:39.500Z,1.00
2019-04-28T13:03:15.608Z,0.87
2019-04-28T13:06:00.204Z,0.83
2019-04-28T13:08:20.631Z,1.00
2019-04-28T13:10:51.992Z,0.77
2019-04-28T13:13:23.292Z,0.83
2019-04-28T13:15:54.594Z,1.80
2019-04-28T13:18:25.897Z,1.63
2019-04-28T13:20:59.030Z,1.70
2019-04-28T13:23:30.245Z,2.10
2019-04-28T13:26:01.550Z,2.03
2019-04-28T13:28:32.950Z,1.50
2019-04-28T13:31:04.293Z,1.60
2019-04-28T13:33:35.759Z,1.50
2019-04-28T13:36:14.588Z,1.53
2019-04-28T13:38:40.233Z,1.63
2019-04-28T13:41:11.665Z,1.80
2019-04-28T13:43:43.078Z,2.37
2019-04-28T13:46:14.421Z,1.80
2019-04-28T13:48:45.829Z,1.60
2019-04-28T13:51:17.105Z,2.00
2019-04-28T13:53:48.419Z,1.77
2019-04-28T13:56:19.801Z,1.37
2019-04-28T13:59:14.666Z,1.60
2019-04-28T14:02:07.952Z,1.60
2019-04-28T14:04:54.783Z,1.80
2019-04-28T14:07:26.076Z,2.23
2019-04-28T14:09:57.326Z,2.10
2019-04-28T14:12:28.654Z,2.20
2019-04-28T14:14:59.981Z,1.70
2019-04-28T14:17:31.301Z,1.57
2019-04-28T14:20:02.650Z,1.47
2019-04-28T14:22:33.953Z,1.63
2019-04-28T14:25:05.539Z,1.70
2019-04-28T14:27:36.844Z,1.37
2019-04-28T14:30:08.508Z,1.40
2019-04-28T14:32:39.825Z,1.50
2019-04-28T14:35:11.310Z,1.20
2019-04-28T14:37:42.693Z,1.30
2019-04-28T14:40:14.246Z,1.40
2019-04-28T14:42:45.560Z,1.10
2019-04-28T14:45:18.007Z,0.70
2019-04-28T14:47:49.455Z,1.00
2019-04-28T14:50:20.831Z,0.80
2019-04-28T14:52:52.095Z,1.00
2019-04-28T14:55:23.420Z,0.83
2019-04-28T14:57:54.731Z,0.77
2019-04-28T15:00:32.447Z,0.80
2019-04-28T15:03:07.573Z,0.70
2019-04-28T15:05:56.354Z,1.00
2019-04-28T15:08:58.646Z,0.83
2019-04-28T15:11:42.786Z,0.70
2019-04-28T15:14:14.113Z,0.73
2019-04-28T15:16:45.529Z,0.80
2019-04-28T15:19:16.932Z,0.60
2019-04-28T15:21:48.370Z,0.80
2019-04-28T15:24:19.718Z,0.73
2019-04-28T15:26:50.967Z,0.80
2019-04-28T15:29:22.297Z,1.03
2019-04-28T15:31:53.630Z,0.90
2019-04-28T15:34:24.886Z,0.60
2019-04-28T15:37:08.917Z,0.90
2019-04-28T15:39:29.354Z,0.80
2019-04-28T15:42:00.798Z,0.90
2019-04-28T15:44:32.194Z,0.87
2019-04-28T15:47:03.648Z,1.00
2019-04-28T15:49:35.117Z,1.00
2019-04-28T15:52:06.635Z,0.80
2019-04-28T15:54:38.030Z,1.10
2019-04-28T15:57:09.340Z,1.00
2019-04-28T15:59:40.741Z,1.07
2019-04-28T16:02:12.343Z,1.00
2019-04-28T16:04:43.811Z,1.20
2019-04-28T16:07:24.772Z,1.80
2019-04-28T16:09:48.558Z,1.20
2019-04-28T16:12:20.155Z,1.10
2019-04-28T16:14:51.718Z,1.30
2019-04-28T16:17:23.262Z,1.17
2019-04-28T16:19:54.764Z,1.27
2019-04-28T16:22:26.142Z,1.30
2019-04-28T16:24:57.469Z,1.20
2019-04-28T16:27:28.804Z,1.20
2019-04-28T16:30:00.158Z,1.13
2019-04-28T16:32:31.504Z,1.13
2019-04-28T16:35:02.911Z,1.00
2019-04-28T16:37:39.074Z,1.13
2019-04-28T16:40:09.642Z,1.20
2019-04-28T16:43:12.379Z,1.10
2019-04-28T16:45:43.708Z,1.47
2019-04-28T16:48:15.091Z,1.60
2019-04-28T16:50:46.558Z,1.50
2019-04-28T16:53:17.993Z,0.93
2019-04-28T16:56:06.837Z,0.90
2019-04-28T16:59:03.342Z,0.90
2019-04-28T17:01:44.846Z,1.40
2019-04-28T17:04:16.460Z,1.20
2019-04-28T17:06:48.079Z,1.00
2019-04-28T17:09:21.343Z,1.20
2019-04-28T17:11:52.989Z,1.03
2019-04-28T17:14:24.611Z,0.90
2019-04-28T17:16:56.193Z,1.10
2019-04-28T17:19:27.757Z,1.00
2019-04-28T17:21:59.247Z,0.80
2019-04-28T17:24:30.841Z,1.20
2019-04-28T17:27:02.353Z,1.03
2019-04-28T17:29:33.935Z,1.00
2019-04-28T17:32:05.393Z,1.00
2019-04-28T17:34:36.862Z,1.10
2019-04-28T17:37:08.662Z,0.90
2019-04-28T17:39:40.275Z,1.00
2019-04-28T17:42:12.696Z,1.00
2019-04-28T17:44:44.357Z,0.97
2019-04-28T17:47:17.616Z,1.00
2019-04-28T17:49:49.191Z,1.00
2019-04-28T17:52:20.788Z,1.20
2019-04-28T17:54:52.417Z,1.03
2019-04-28T17:57:24.032Z,1.00
2019-04-28T17:59:57.515Z,0.90
2019-04-28T18:03:00.031Z,1.07
2019-04-28T18:05:39.960Z,0.90
2019-04-28T18:08:20.792Z,1.00
2019-04-28T18:10:44.903Z,1.10
2019-04-28T18:13:16.561Z,1.00
2019-04-28T18:16:05.629Z,1.07
2019-04-28T18:18:43.401Z,2.47
2019-04-28T18:21:15.034Z,1.97
2019-04-28T18:23:46.691Z,1.40
2019-04-28T18:26:18.321Z,1.40
2019-04-28T18:28:49.900Z,1.30
2019-04-28T18:31:44.067Z,1.23
2019-04-28T18:34:46.513Z,1.70
2019-04-28T18:37:37.075Z,1.50
2019-04-28T18:40:26.339Z,1.80
2019-04-28T18:43:08.235Z,1.40
2019-04-28T18:45:39.928Z,1.40
2019-04-28T18:48:11.576Z,1.87
2019-04-28T18:50:43.217Z,2.00
2019-04-28T18:53:14.864Z,1.77
2019-04-28T18:55:46.475Z,1.80
2019-04-28T18:58:18.141Z,1.83
2019-04-28T19:00:58.000Z,2.70
2019-04-28T19:03:29.620Z,2.33
2019-04-28T19:06:01.285Z,2.40
2019-04-28T19:08:48.871Z,2.60
2019-04-28T19:11:30.235Z,2.33
2019-04-28T19:14:16.740Z,2.30
2019-04-28T19:17:10.281Z,2.83
2019-04-28T19:19:42.471Z,3.00
2019-04-28T19:22:14.064Z,3.00
2019-04-28T19:24:46.261Z,2.70
2019-04-28T19:27:17.961Z,2.97
2019-04-28T19:29:49.654Z,3.13
2019-04-28T19:32:21.331Z,2.80
2019-04-28T19:34:53.016Z,3.17
2019-04-28T19:37:24.716Z,3.67
2019-04-28T19:39:56.436Z,3.30
2019-04-28T19:42:28.146Z,8.20
2019-04-28T19:44:59.820Z,5.30
2019-04-28T19:47:31.441Z,4.07
2019-04-28T19:50:03.127Z,3.90
2019-04-28T19:52:34.760Z,3.50
2019-04-28T19:55:31.933Z,3.40
2019-04-28T19:58:20.897Z,3.30
2019-04-28T20:00:58.965Z,3.50
2019-04-28T20:03:30.518Z,3.73
2019-04-28T20:06:02.250Z,3.60
2019-04-28T20:08:33.889Z,3.57
2019-04-28T20:11:05.437Z,3.43
2019-04-28T20:13:36.967Z,3.87
2019-04-28T20:16:08.476Z,3.90
2019-04-28T20:18:43.307Z,3.63
2019-04-28T20:21:14.741Z,3.70
2019-04-28T20:23:46.131Z,4.33
2019-04-28T20:26:17.461Z,4.17
2019-04-28T20:28:48.697Z,3.60
2019-04-28T20:31:19.975Z,4.77
2019-04-28T20:33:51.345Z,3.97
2019-04-28T20:36:34.423Z,4.20
2019-04-28T20:39:11.598Z,4.20
2019-04-28T20:41:43.005Z,5.50
2019-04-28T20:44:14.311Z,12.67
2019-04-28T20:46:45.649Z,5.77
2019-04-28T20:49:16.978Z,5.20
2019-04-28T20:51:48.298Z,4.77
2019-04-28T20:54:19.594Z,4.50
2019-04-28T20:56:50.908Z,4.90
2019-04-28T20:59:22.218Z,4.90
2019-04-28T21:01:53.516Z,5.07
2019-04-28T21:04:24.810Z,5.00
2019-04-28T21:06:56.088Z,5.57
2019-04-28T21:09:27.421Z,4.80
2019-04-28T21:11:58.728Z,4.77
2019-04-28T21:14:30.014Z,5.50
2019-04-28T21:17:01.314Z,5.13
2019-04-28T21:19:32.678Z,4.83
2019-04-28T21:22:03.955Z,5.50
2019-04-28T21:24:35.240Z,5.33
2019-04-28T21:27:06.582Z,5.87
2019-04-28T21:29:37.883Z,6.17
2019-04-28T21:32:09.196Z,5.73
2019-04-28T21:34:40.481Z,5.57
2019-04-28T21:37:11.792Z,5.27
2019-04-28T21:39:43.098Z,5.37
2019-04-28T21:42:17.447Z,5.73
2019-04-28T21:45:10.440Z,5.33
2019-04-28T21:47:41.804Z,5.70
2019-04-28T21:50:13.071Z,7.00
2019-04-28T21:52:44.415Z,6.03
2019-04-28T21:55:15.716Z,6.17
2019-04-28T21:57:47.348Z,6.43
2019-04-28T22:00:23.965Z,6.03
2019-04-28T22:02:55.206Z,5.97
2019-04-28T22:05:30.590Z,5.77
2019-04-28T22:07:59.514Z,5.67
2019-04-28T22:10:30.799Z,5.77
2019-04-28T22:13:02.109Z,6.00
2019-04-28T22:15:33.480Z,5.57
2019-04-28T22:18:04.906Z,5.63
2019-04-28T22:20:36.197Z,5.80
2019-04-28T22:23:18.278Z,5.50
2019-04-28T22:25:43.790Z,5.50
2019-04-28T22:28:15.068Z,5.57
2019-04-28T22:30:46.357Z,5.30
2019-04-28T22:33:17.650Z,5.10
2019-04-28T22:35:48.967Z,5.30
2019-04-28T22:38:20.289Z,5.83
2019-04-28T22:40:51.626Z,5.37
2019-04-28T22:43:22.908Z,6.63
2019-04-28T22:45:54.246Z,6.30
2019-04-28T22:48:26.652Z,6.10
2019-04-28T22:50:57.934Z,5.43
2019-04-28T22:53:34.479Z,5.60
2019-04-28T22:56:27.860Z,5.60
2019-04-28T22:59:03.831Z,5.67
2019-04-28T23:01:41.447Z,5.00
2019-04-28T23:04:43.509Z,5.67
2019-04-28T23:07:14.980Z,5.30
2019-04-28T23:09:46.253Z,5.90
2019-04-28T23:12:17.531Z,5.70
2019-04-28T23:14:49.001Z,7.00
2019-04-28T23:17:20.745Z,6.50
2019-04-28T23:19:52.137Z,6.73
2019-04-28T23:22:46.042Z,6.67
2019-04-28T23:25:06.660Z,7.03
2019-04-28T23:27:37.957Z,6.57
2019-04-28T23:30:10.487Z,6.90
2019-04-28T23:32:41.788Z,6.70
2019-04-28T23:35:13.227Z,6.13
2019-04-28T23:37:44.503Z,6.50
2019-04-28T23:40:16.240Z,6.27
2019-04-28T23:42:55.734Z,6.67
2019-04-28T23:45:27.057Z,6.50
2019-04-28T23:47:58.334Z,6.63
2019-04-28T23:50:38.594Z,6.27
2019-04-28T23:53:13.160Z,6.40
2019-04-28T23:55:44.466Z,6.97
2019-04-28T23:58:15.773Z,6.30
